createdAt,value
2016-11-18T00:00:58.902Z,0
2016-11-18T00:01:58.615Z,0
2016-11-18T00:02:58.625Z,0
2016-11-18T00:03:58.854Z,0
2016-11-18T00:04:58.973Z,0
2016-11-18T00:05:58.992Z,0
2016-11-18T00:06:59.018Z,0
2016-11-18T00:07:58.717Z,0
2016-11-18T00:08:59.372Z,0
2016-11-18T00:09:59.073Z,0
2016-11-18T00:10:59.095Z,0
2016-11-18T00:11:58.793Z,0
2016-11-18T00:12:58.810Z,0
2016-11-18T00:13:59.151Z,0
2016-11-18T00:14:59.800Z,0
2016-11-18T00:15:59.215Z,0
2016-11-18T00:16:59.515Z,0
2016-11-18T00:17:58.588Z,0
2016-11-18T00:18:58.928Z,0
2016-11-18T00:19:58.941Z,0
2016-11-18T00:20:59.285Z,0
2016-11-18T00:21:58.979Z,0
2016-11-18T00:22:59.001Z,0
2016-11-18T00:23:59.652Z,0
2016-11-18T00:24:59.036Z,0
2016-11-18T00:25:59.377Z,0
2016-11-18T00:26:59.472Z,0
2016-11-18T00:27:59.467Z,0
2016-11-18T00:28:59.804Z,0
2016-11-18T00:29:59.452Z,0
2016-11-18T00:30:59.467Z,0
2016-11-18T00:31:59.491Z,0
2016-11-18T00:32:58.878Z,0
2016-11-18T00:33:59.436Z,0
2016-11-18T00:34:59.544Z,0
2016-11-18T00:35:59.560Z,0
2016-11-18T00:36:59.582Z,0
2016-11-18T00:37:59.287Z,0
2016-11-18T00:38:59.303Z,0
2016-11-18T00:39:59.639Z,0
2016-11-18T00:40:59.343Z,0
2016-11-18T00:41:59.358Z,0
2016-11-18T00:43:00.011Z,0
2016-11-18T00:43:59.399Z,0
2016-11-18T00:44:59.729Z,0
2016-11-18T00:46:00.061Z,0
2016-11-18T00:46:59.447Z,0
2016-11-18T00:47:59.792Z,0
2016-11-18T00:48:59.176Z,0
2016-11-18T00:49:59.512Z,0
2016-11-18T00:50:59.525Z,0
2016-11-18T00:51:59.263Z,0
2016-11-18T00:52:59.559Z,0
2016-11-18T00:53:59.582Z,0
2016-11-18T00:54:59.918Z,0
2016-11-18T00:55:59.934Z,0
2016-11-18T00:56:59.981Z,0
2016-11-18T00:57:59.658Z,0
2016-11-18T00:58:59.993Z,0
2016-11-18T01:00:00.010Z,0
2016-11-18T01:01:00.036Z,0
2016-11-18T01:02:00.045Z,0
2016-11-18T01:03:00.101Z,0
2016-11-18T01:04:00.117Z,0
2016-11-18T01:04:59.788Z,0
2016-11-18T01:06:00.748Z,0
2016-11-18T01:07:00.452Z,0
2016-11-18T01:07:59.837Z,0
2016-11-18T01:09:00.528Z,0
2016-11-18T01:09:59.891Z,0
2016-11-18T01:11:00.585Z,0
2016-11-18T01:12:00.549Z,0
2016-11-18T01:13:00.572Z,0
2016-11-18T01:14:00.275Z,0
2016-11-18T01:15:00.291Z,0
2016-11-18T01:16:00.611Z,0
2016-11-18T01:17:00.650Z,0
2016-11-18T01:18:00.021Z,0
2016-11-18T01:19:00.673Z,0
2016-11-18T01:20:00.376Z,0
2016-11-18T01:21:00.399Z,0
2016-11-18T01:21:59.799Z,0
2016-11-18T01:23:00.431Z,0
2016-11-18T01:24:00.446Z,0
2016-11-18T01:25:00.467Z,0
2016-11-18T01:26:00.174Z,0
2016-11-18T01:27:00.182Z,0
2016-11-18T01:28:00.872Z,0
2016-11-18T01:29:00.536Z,0
2016-11-18T01:30:00.553Z,0
2016-11-18T01:31:00.577Z,0
2016-11-18T01:32:00.312Z,0
2016-11-18T01:33:00.297Z,0
2016-11-18T01:34:00.314Z,0
2016-11-18T01:35:00.645Z,0
2016-11-18T01:36:01.311Z,0
2016-11-18T01:37:00.994Z,0
2016-11-18T01:38:00.395Z,0
2016-11-18T01:39:00.748Z,0
2016-11-18T01:40:01.057Z,0
2016-11-18T01:41:00.748Z,0
2016-11-18T01:46:01.150Z,0
2016-11-18T01:47:00.551Z,0
2016-11-18T01:48:00.877Z,0
2016-11-18T01:49:00.570Z,0
2016-11-18T01:50:00.909Z,0
2016-11-18T01:51:00.298Z,0
2016-11-18T01:52:01.566Z,0
2016-11-18T01:53:00.954Z,0
2016-11-18T01:54:00.972Z,0
2016-11-18T01:55:00.355Z,0
2016-11-18T01:56:00.690Z,0
2016-11-18T01:57:01.021Z,0
2016-11-18T01:58:00.720Z,0
2016-11-18T01:59:01.097Z,0
2016-11-18T02:00:01.067Z,0
2016-11-18T02:01:01.127Z,0
2016-11-18T02:02:00.801Z,0
2016-11-18T02:03:01.437Z,0
2016-11-18T02:04:01.143Z,0
2016-11-18T02:05:00.845Z,0
2016-11-18T02:06:01.175Z,0
2016-11-18T02:07:01.196Z,0
2016-11-18T02:08:00.582Z,0
2016-11-18T02:09:01.240Z,0
2016-11-18T02:10:00.932Z,0
2016-11-18T02:11:00.948Z,0
2016-11-18T02:12:01.283Z,0
2016-11-18T02:13:01.622Z,0
2016-11-18T02:14:01.007Z,0
2016-11-18T02:15:01.338Z,0
2016-11-18T02:16:01.041Z,0
2016-11-18T02:17:01.056Z,0
2016-11-18T02:18:00.764Z,0
2016-11-18T02:19:01.090Z,0
2016-11-18T02:20:01.117Z,0
2016-11-18T02:21:00.861Z,0
2016-11-18T02:22:01.505Z,0
2016-11-18T02:23:02.108Z,0
2016-11-18T02:24:01.812Z,0
2016-11-18T02:25:01.219Z,0
2016-11-18T02:26:01.523Z,0
2016-11-18T02:27:01.229Z,0
2016-11-18T02:28:01.871Z,0
2016-11-18T02:29:00.952Z,0
2016-11-18T02:30:01.913Z,0
2016-11-18T02:31:01.295Z,0
2016-11-18T02:32:01.972Z,0
2016-11-18T02:33:01.687Z,0
2016-11-18T02:34:01.352Z,0
2016-11-18T02:35:01.718Z,0
2016-11-18T02:36:01.722Z,0
2016-11-18T02:37:01.081Z,0
2016-11-18T02:38:01.759Z,0
2016-11-18T02:39:01.754Z,0
2016-11-18T02:40:01.479Z,0
2016-11-18T02:41:01.503Z,0
2016-11-18T02:42:01.490Z,0
2016-11-18T02:43:01.498Z,0
2016-11-18T02:44:01.836Z,0
2016-11-18T02:45:01.219Z,0
2016-11-18T02:46:02.185Z,0
2016-11-18T02:47:01.580Z,0
2016-11-18T02:48:01.599Z,0
2016-11-18T02:49:01.929Z,0
2016-11-18T02:50:01.934Z,0
2016-11-18T02:51:01.673Z,0
2016-11-18T02:52:01.972Z,0
2016-11-18T02:53:02.304Z,0
2016-11-18T02:54:02.333Z,0
2016-11-18T02:55:01.414Z,0
2016-11-18T02:56:02.364Z,0
2016-11-18T02:57:02.370Z,0
2016-11-18T02:58:02.078Z,0
2016-11-18T02:59:01.461Z,0
2016-11-18T03:00:02.423Z,0
2016-11-18T03:01:02.122Z,0
2016-11-18T03:02:02.168Z,0
2016-11-18T03:03:02.160Z,0
2016-11-18T03:04:02.204Z,0
2016-11-18T03:05:02.509Z,0
2016-11-18T03:06:01.901Z,0
2016-11-18T03:07:02.884Z,0
2016-11-18T03:08:02.556Z,0
2016-11-18T03:09:02.284Z,0
2016-11-18T03:10:01.974Z,0
2016-11-18T03:11:02.297Z,0
2016-11-18T03:12:02.025Z,0
2016-11-18T03:13:02.349Z,0
2016-11-18T03:14:02.349Z,0
2016-11-18T03:15:01.732Z,0
2016-11-18T03:16:01.750Z,0
2016-11-18T03:17:02.415Z,0
2016-11-18T03:18:02.414Z,0
2016-11-18T03:19:02.115Z,0
2016-11-18T03:20:02.135Z,0
2016-11-18T03:21:02.459Z,0
2016-11-18T03:22:02.799Z,0
2016-11-18T03:23:02.503Z,0
2016-11-18T03:24:02.519Z,0
2016-11-18T03:25:02.569Z,0
2016-11-18T03:26:02.548Z,0
2016-11-18T03:27:02.900Z,0
2016-11-18T03:28:02.903Z,0
2016-11-18T03:29:02.293Z,0
2016-11-18T03:30:02.310Z,0
2016-11-18T03:31:02.325Z,0
2016-11-18T03:32:02.340Z,0
2016-11-18T03:33:02.675Z,0
2016-11-18T03:34:02.372Z,0
2016-11-18T03:35:02.383Z,0
2016-11-18T03:36:02.414Z,0
2016-11-18T03:37:02.454Z,0
2016-11-18T03:38:02.437Z,0
2016-11-18T03:39:02.456Z,0
2016-11-18T03:40:02.473Z,0
2016-11-18T03:41:03.128Z,0
2016-11-18T03:42:02.563Z,0
2016-11-18T03:43:02.378Z,0
2016-11-18T03:44:03.239Z,0
2016-11-18T03:45:03.217Z,0
2016-11-18T03:46:02.933Z,0
2016-11-18T03:47:03.022Z,0
2016-11-18T03:48:03.562Z,0
2016-11-18T03:49:02.954Z,0
2016-11-18T03:50:03.000Z,0
2016-11-18T03:51:02.999Z,0
2016-11-18T03:52:03.005Z,0
2016-11-18T03:53:03.343Z,0
2016-11-18T03:54:02.723Z,0
2016-11-18T03:55:03.370Z,0
2016-11-18T03:56:03.074Z,0
2016-11-18T03:57:02.772Z,0
2016-11-18T03:58:03.733Z,0
2016-11-18T03:59:03.435Z,0
2016-11-18T04:00:02.821Z,0
2016-11-18T04:01:03.158Z,0
2016-11-18T04:02:03.194Z,0
2016-11-18T04:03:03.822Z,0
2016-11-18T04:04:02.598Z,0
2016-11-18T04:05:03.576Z,0
2016-11-18T04:06:03.248Z,0
2016-11-18T04:07:02.946Z,0
2016-11-18T04:08:02.965Z,0
2016-11-18T04:09:02.977Z,0
2016-11-18T04:10:03.940Z,0
2016-11-18T04:11:03.644Z,0
2016-11-18T04:12:03.682Z,0
2016-11-18T04:13:03.368Z,0
2016-11-18T04:14:02.752Z,0
2016-11-18T04:15:03.403Z,0
2016-11-18T04:16:04.053Z,0
2016-11-18T04:17:03.443Z,0
2016-11-18T04:18:03.142Z,0
2016-11-18T04:19:03.476Z,0
2016-11-18T04:20:03.489Z,0
2016-11-18T04:21:03.830Z,0
2016-11-18T04:22:03.218Z,0
2016-11-18T04:23:03.549Z,0
2016-11-18T04:24:03.869Z,0
2016-11-18T04:25:03.894Z,0
2016-11-18T04:26:03.284Z,0
2016-11-18T04:27:03.616Z,0
2016-11-18T04:28:03.947Z,0
2016-11-18T04:29:03.655Z,0
2016-11-18T04:30:03.351Z,0
2016-11-18T04:31:03.679Z,0
2016-11-18T04:32:03.699Z,0
2016-11-18T04:33:04.036Z,0
2016-11-18T04:34:03.750Z,0
2016-11-18T04:35:03.121Z,0
2016-11-18T04:36:03.239Z,0
2016-11-18T04:37:04.112Z,0
2016-11-18T04:38:03.217Z,0
2016-11-18T04:39:03.849Z,0
2016-11-18T04:40:03.209Z,0
2016-11-18T04:41:03.877Z,0
2016-11-18T04:42:03.559Z,0
2016-11-18T04:43:03.897Z,0
2016-11-18T04:44:03.911Z,0
2016-11-18T04:45:04.567Z,0
2016-11-18T04:46:04.263Z,0
2016-11-18T04:47:03.662Z,0
2016-11-18T04:48:04.610Z,0
2016-11-18T04:49:03.995Z,0
2016-11-18T04:50:04.020Z,0
2016-11-18T04:51:03.717Z,0
2016-11-18T04:52:03.738Z,0
2016-11-18T04:53:04.068Z,0
2016-11-18T04:54:04.435Z,0
2016-11-18T04:55:04.105Z,0
2016-11-18T04:56:04.119Z,0
2016-11-18T04:57:04.458Z,0
2016-11-18T04:58:04.151Z,0
2016-11-18T04:59:03.853Z,0
2016-11-18T05:00:03.910Z,0
2016-11-18T05:01:03.596Z,0
2016-11-18T05:02:04.225Z,0
2016-11-18T05:03:03.950Z,0
2016-11-18T05:04:03.651Z,0
2016-11-18T05:05:03.961Z,0
2016-11-18T05:06:04.612Z,0
2016-11-18T05:07:04.005Z,0
2016-11-18T05:08:04.335Z,0
2016-11-18T05:09:04.028Z,0
2016-11-18T05:10:04.054Z,0
2016-11-18T05:11:04.387Z,0
2016-11-18T05:12:03.768Z,0
2016-11-18T05:13:04.109Z,0
2016-11-18T05:14:04.437Z,0
2016-11-18T05:15:04.141Z,0
2016-11-18T05:16:04.790Z,0
2016-11-18T05:17:04.808Z,0
2016-11-18T05:18:04.827Z,0
2016-11-18T05:19:04.527Z,0
2016-11-18T05:20:04.863Z,0
2016-11-18T05:21:04.250Z,0
2016-11-18T05:22:04.590Z,0
2016-11-18T05:23:03.963Z,0
2016-11-18T05:24:04.301Z,0
2016-11-18T05:25:04.325Z,0
2016-11-18T05:26:04.025Z,0
2016-11-18T05:27:04.349Z,0
2016-11-18T05:28:05.000Z,0
2016-11-18T05:29:04.453Z,0
2016-11-18T05:30:04.409Z,0
2016-11-18T05:31:04.429Z,0
2016-11-18T05:32:04.455Z,0
2016-11-18T05:33:05.095Z,0
2016-11-18T05:34:04.801Z,0
2016-11-18T05:35:05.447Z,0
2016-11-18T05:36:05.143Z,0
2016-11-18T05:37:05.479Z,0
2016-11-18T05:38:04.558Z,0
2016-11-18T05:39:04.254Z,0
2016-11-18T05:40:05.216Z,0
2016-11-18T05:41:04.940Z,0
2016-11-18T05:42:04.656Z,0
2016-11-18T05:43:04.323Z,0
2016-11-18T05:44:05.290Z,0
2016-11-18T05:45:04.688Z,0
2016-11-18T05:46:05.323Z,0
2016-11-18T05:47:05.339Z,0
2016-11-18T05:48:05.381Z,0
2016-11-18T05:49:05.077Z,0
2016-11-18T05:50:05.389Z,0
2016-11-18T05:51:04.801Z,0
2016-11-18T05:52:04.814Z,0
2016-11-18T05:53:05.211Z,0
2016-11-18T05:54:04.834Z,0
2016-11-18T05:55:05.165Z,0
2016-11-18T05:56:04.863Z,0
2016-11-18T05:57:05.514Z,0
2016-11-18T05:58:05.531Z,0
2016-11-18T05:59:05.271Z,0
2016-11-18T06:00:05.257Z,0
2016-11-18T06:01:04.954Z,0
2016-11-18T06:02:05.604Z,0
2016-11-18T06:03:05.303Z,0
2016-11-18T06:04:04.686Z,0
2016-11-18T06:05:05.062Z,0
2016-11-18T06:06:05.052Z,0
2016-11-18T06:07:05.370Z,0
2016-11-18T06:08:05.392Z,0
2016-11-18T06:09:05.729Z,0
2016-11-18T06:10:05.766Z,0
2016-11-18T06:11:06.075Z,0
2016-11-18T06:12:05.778Z,0
2016-11-18T06:13:05.166Z,0
2016-11-18T06:14:05.495Z,0
2016-11-18T06:15:05.520Z,0
2016-11-18T06:16:05.849Z,0
2016-11-18T06:17:05.863Z,0
2016-11-18T06:18:05.256Z,0
2016-11-18T06:19:05.902Z,0
2016-11-18T06:20:04.973Z,0
2016-11-18T06:21:05.620Z,0
2016-11-18T06:22:05.638Z,0
2016-11-18T06:23:05.343Z,0
2016-11-18T06:24:05.988Z,0
2016-11-18T06:25:05.697Z,0
2016-11-18T06:26:05.391Z,0
2016-11-18T06:27:05.412Z,0
2016-11-18T06:28:05.112Z,0
2016-11-18T06:29:06.072Z,0
2016-11-18T06:30:06.096Z,0
2016-11-18T06:31:06.126Z,0
2016-11-18T06:32:05.808Z,0
2016-11-18T06:33:05.827Z,0
2016-11-18T06:34:05.214Z,0
2016-11-18T06:35:05.565Z,0
2016-11-18T06:36:06.198Z,0
2016-11-18T06:37:05.296Z,0
2016-11-18T06:38:05.923Z,0
2016-11-18T06:39:05.949Z,0
2016-11-18T06:40:06.273Z,0
2016-11-18T06:41:05.985Z,0
2016-11-18T06:42:05.989Z,0
2016-11-18T06:43:06.322Z,0
2016-11-18T06:44:06.359Z,0
2016-11-18T06:45:06.051Z,5
2016-11-18T06:46:05.746Z,5
2016-11-18T06:47:05.760Z,5
2016-11-18T06:48:05.809Z,5
2016-11-18T06:49:06.427Z,5
2016-11-18T06:50:05.816Z,5
2016-11-18T06:51:06.459Z,5
2016-11-18T06:52:06.481Z,5
2016-11-18T06:53:06.233Z,5
2016-11-18T06:54:06.518Z,5
2016-11-18T06:55:05.907Z,5
2016-11-18T06:56:06.237Z,5
2016-11-18T06:57:05.942Z,5
2016-11-18T06:58:05.959Z,5
2016-11-18T06:59:06.297Z,5
2016-11-18T07:00:06.314Z,5
2016-11-18T07:01:06.028Z,5
2016-11-18T07:02:05.736Z,10
2016-11-18T07:03:06.052Z,10
2016-11-18T07:04:06.064Z,10
2016-11-18T07:05:06.397Z,10
2016-11-18T07:06:06.100Z,10
2016-11-18T07:07:06.752Z,10
2016-11-18T07:08:06.765Z,10
2016-11-18T07:09:05.838Z,10
2016-11-18T07:10:06.493Z,10
2016-11-18T07:11:05.886Z,10
2016-11-18T07:12:05.894Z,10
2016-11-18T07:13:06.231Z,10
2016-11-18T07:14:06.564Z,10
2016-11-18T07:15:06.585Z,15
2016-11-18T07:16:06.598Z,15
2016-11-18T07:17:06.648Z,15
2016-11-18T07:18:06.323Z,15
2016-11-18T07:19:06.020Z,15
2016-11-18T07:20:06.036Z,15
2016-11-18T07:21:07.012Z,15
2016-11-18T07:22:06.074Z,15
2016-11-18T07:23:06.410Z,15
2016-11-18T07:24:06.747Z,15
2016-11-18T07:25:06.770Z,15
2016-11-18T07:26:06.155Z,15
2016-11-18T07:27:06.800Z,15
2016-11-18T07:28:06.513Z,15
2016-11-18T07:29:06.523Z,15
2016-11-18T07:30:06.226Z,20
2016-11-18T07:31:06.557Z,20
2016-11-18T07:32:06.899Z,20
2016-11-18T07:33:06.938Z,20
2016-11-18T07:34:06.929Z,20
2016-11-18T07:35:06.955Z,20
2016-11-18T07:36:07.293Z,20
2016-11-18T07:37:07.002Z,20
2016-11-18T07:38:07.020Z,20
2016-11-18T07:39:07.031Z,20
2016-11-18T07:40:07.046Z,20
2016-11-18T07:41:06.759Z,25
2016-11-18T07:42:07.089Z,25
2016-11-18T07:43:06.799Z,25
2016-11-18T07:44:07.124Z,25
2016-11-18T07:45:06.827Z,25
2016-11-18T07:46:07.164Z,25
2016-11-18T07:47:06.901Z,25
2016-11-18T07:48:06.885Z,25
2016-11-18T07:49:07.851Z,25
2016-11-18T07:50:07.234Z,30
2016-11-18T07:51:07.894Z,30
2016-11-18T07:52:06.962Z,30
2016-11-18T07:53:07.664Z,30
2016-11-18T07:54:06.684Z,35
2016-11-18T07:55:07.339Z,55
2016-11-18T07:56:07.036Z,55
2016-11-18T07:57:07.700Z,50
2016-11-18T07:58:07.079Z,45
2016-11-18T07:59:07.417Z,55
2016-11-18T08:00:07.124Z,60
2016-11-18T08:01:07.469Z,55
2016-11-18T08:02:07.152Z,80
2016-11-18T08:03:07.178Z,90
2016-11-18T08:04:06.919Z,70
2016-11-18T08:05:07.214Z,50
2016-11-18T08:06:06.927Z,50
2016-11-18T08:07:07.891Z,40
2016-11-18T08:08:07.906Z,35
2016-11-18T08:10:07.633Z,35
2016-11-18T08:11:07.648Z,105
2016-11-18T08:12:07.037Z,80
2016-11-18T08:13:07.377Z,65
2016-11-18T08:14:07.731Z,50
2016-11-18T08:15:07.425Z,65
2016-11-18T08:16:08.380Z,70
2016-11-18T08:17:07.454Z,70
2016-11-18T08:18:07.794Z,55
2016-11-18T08:19:08.151Z,50
2016-11-18T08:20:07.555Z,60
2016-11-18T08:21:07.560Z,60
2016-11-18T08:22:07.576Z,50
2016-11-18T08:23:07.585Z,55
2016-11-18T08:24:07.925Z,55
2016-11-18T08:25:07.621Z,55
2016-11-18T08:26:07.961Z,50
2016-11-18T08:27:07.669Z,45
2016-11-18T08:28:08.007Z,45
2016-11-18T08:29:08.067Z,45
2016-11-18T08:30:08.064Z,40
2016-11-18T08:31:07.753Z,40
2016-11-18T08:32:08.411Z,40
2016-11-18T08:33:07.805Z,45
2016-11-18T08:34:08.925Z,40
2016-11-18T08:35:07.847Z,40
2016-11-18T08:36:07.868Z,40
2016-11-18T08:37:07.896Z,40
2016-11-18T08:38:07.930Z,45
2016-11-18T08:39:08.245Z,50
2016-11-18T08:40:08.584Z,60
2016-11-18T08:41:08.605Z,80
2016-11-18T08:42:08.307Z,120
2016-11-18T08:43:08.013Z,135
2016-11-18T08:44:08.675Z,145
2016-11-18T08:45:08.161Z,135
2016-11-18T08:46:08.397Z,140
2016-11-18T08:47:08.106Z,140
2016-11-18T08:48:08.439Z,100
2016-11-18T08:49:08.148Z,125
2016-11-18T08:50:08.206Z,120
2016-11-18T08:51:08.816Z,95
2016-11-18T08:52:08.525Z,105
2016-11-18T08:53:08.563Z,65
2016-11-18T08:54:08.583Z,85
2016-11-18T08:55:08.910Z,65
2016-11-18T08:56:08.030Z,70
2016-11-18T08:57:08.959Z,70
2016-11-18T08:58:08.663Z,50
2016-11-18T08:59:08.690Z,60
2016-11-18T09:00:08.418Z,60
2016-11-18T09:01:08.109Z,65
2016-11-18T09:02:09.387Z,70
2016-11-18T09:03:08.774Z,50
2016-11-18T09:04:08.824Z,40
2016-11-18T09:05:08.525Z,35
2016-11-18T09:06:08.843Z,35
2016-11-18T09:07:09.200Z,35
2016-11-18T09:08:08.578Z,40
2016-11-18T09:09:09.223Z,60
2016-11-18T09:10:09.286Z,50
2016-11-18T09:11:08.672Z,40
2016-11-18T09:12:08.983Z,35
2016-11-18T09:13:09.320Z,35
2016-11-18T09:14:09.347Z,30
2016-11-18T09:15:08.740Z,35
2016-11-18T09:16:09.084Z,30
2016-11-18T09:17:08.799Z,35
2016-11-18T09:18:09.125Z,35
2016-11-18T09:19:09.154Z,35
2016-11-18T09:20:08.859Z,30
2016-11-18T09:21:09.195Z,35
2016-11-18T09:22:09.220Z,35
2016-11-18T09:23:09.888Z,40
2016-11-18T09:24:09.278Z,45
2016-11-18T09:25:09.297Z,55
2016-11-18T09:26:09.659Z,75
2016-11-18T09:27:09.022Z,90
2016-11-18T09:28:09.047Z,75
2016-11-18T09:29:09.376Z,70
2016-11-18T09:30:09.092Z,85
2016-11-18T09:31:09.448Z,90
2016-11-18T09:32:09.769Z,95
2016-11-18T09:33:09.157Z,105
2016-11-18T09:34:09.810Z,60
2016-11-18T09:35:09.522Z,60
2016-11-18T09:36:09.260Z,120
2016-11-18T09:37:09.913Z,235
2016-11-18T09:38:09.914Z,190
2016-11-18T09:39:09.305Z,160
2016-11-18T09:40:09.322Z,155
2016-11-18T09:41:09.347Z,140
2016-11-18T09:42:10.330Z,90
2016-11-18T09:43:09.093Z,110
2016-11-18T09:44:10.051Z,75
2016-11-18T09:45:10.400Z,90
2016-11-18T09:46:10.097Z,105
2016-11-18T09:47:09.515Z,65
2016-11-18T09:48:09.509Z,60
2016-11-18T09:49:10.170Z,45
2016-11-18T09:50:09.883Z,50
2016-11-18T09:51:09.899Z,55
2016-11-18T09:52:09.960Z,50
2016-11-18T09:53:09.632Z,80
2016-11-18T09:54:09.346Z,95
2016-11-18T09:55:10.009Z,55
2016-11-18T09:56:10.028Z,55
2016-11-18T09:57:09.732Z,40
2016-11-18T09:58:09.756Z,35
2016-11-18T09:59:10.105Z,35
2016-11-18T10:00:09.492Z,30
2016-11-18T10:01:09.838Z,30
2016-11-18T10:02:09.856Z,30
2016-11-18T10:03:09.562Z,30
2016-11-18T10:04:09.591Z,25
2016-11-18T10:05:09.920Z,25
2016-11-18T10:06:09.983Z,25
2016-11-18T10:07:10.290Z,25
2016-11-18T10:08:09.685Z,25
2016-11-18T10:09:10.083Z,25
2016-11-18T10:10:10.061Z,30
2016-11-18T10:11:10.073Z,25
2016-11-18T10:12:10.414Z,25
2016-11-18T10:13:10.658Z,30
2016-11-18T10:14:11.104Z,25
2016-11-18T10:15:10.485Z,25
2016-11-18T10:16:10.825Z,25
2016-11-18T10:17:10.220Z,25
2016-11-18T10:18:10.871Z,30
2016-11-18T10:19:10.901Z,25
2016-11-18T10:20:10.917Z,30
2016-11-18T10:21:10.947Z,30
2016-11-18T10:22:10.650Z,30
2016-11-18T10:23:10.389Z,25
2016-11-18T10:24:11.059Z,30
2016-11-18T10:25:10.422Z,30
2016-11-18T10:26:10.440Z,25
2016-11-18T10:27:11.093Z,25
2016-11-18T10:28:11.114Z,25
2016-11-18T10:29:10.829Z,25
2016-11-18T10:30:11.472Z,25
2016-11-18T10:31:10.979Z,25
2016-11-18T10:32:11.523Z,25
2016-11-18T10:33:10.924Z,30
2016-11-18T10:34:11.260Z,25
2016-11-18T10:35:10.959Z,30
2016-11-18T10:36:10.358Z,35
2016-11-18T10:37:10.381Z,25
2016-11-18T10:38:10.717Z,30
2016-11-18T10:39:10.458Z,30
2016-11-18T10:40:10.448Z,30
2016-11-18T10:41:10.785Z,35
2016-11-18T10:42:11.142Z,30
2016-11-18T10:43:11.165Z,30
2016-11-18T10:44:11.186Z,30
2016-11-18T10:45:10.560Z,25
2016-11-18T10:46:11.620Z,25
2016-11-18T10:47:11.279Z,25
2016-11-18T10:48:11.691Z,25
2016-11-18T10:49:11.627Z,25
2016-11-18T10:50:11.676Z,45
2016-11-18T10:51:11.336Z,25
2016-11-18T10:52:11.077Z,25
2016-11-18T10:53:11.744Z,30
2016-11-18T10:54:11.096Z,30
2016-11-18T10:55:11.119Z,30
2016-11-18T10:56:11.140Z,30
2016-11-18T10:57:11.828Z,30
2016-11-18T10:58:11.504Z,45
2016-11-18T10:59:11.197Z,40
2016-11-18T11:00:11.579Z,30
2016-11-18T11:01:11.599Z,30
2016-11-18T11:02:11.905Z,30
2016-11-18T11:03:11.299Z,30
2016-11-18T11:04:11.951Z,30
2016-11-18T11:05:11.659Z,40
2016-11-18T11:06:11.722Z,35
2016-11-18T11:07:11.702Z,60
2016-11-18T11:08:11.448Z,40
2016-11-18T11:09:11.761Z,50
2016-11-18T11:10:11.459Z,40
2016-11-18T11:11:11.493Z,60
2016-11-18T11:12:11.865Z,50
2016-11-18T11:13:11.531Z,55
2016-11-18T11:14:11.582Z,60
2016-11-18T11:15:11.928Z,60
2016-11-18T11:16:12.243Z,65
2016-11-18T11:17:12.250Z,60
2016-11-18T11:18:12.285Z,50
2016-11-18T11:19:11.987Z,45
2016-11-18T11:20:11.715Z,65
2016-11-18T11:21:12.136Z,55
2016-11-18T11:22:12.057Z,45
2016-11-18T11:23:11.767Z,45
2016-11-18T11:24:12.134Z,55
2016-11-18T11:25:11.496Z,50
2016-11-18T11:26:12.163Z,60
2016-11-18T11:27:11.866Z,50
2016-11-18T11:28:11.885Z,50
2016-11-18T11:29:11.910Z,55
2016-11-18T11:30:11.934Z,55
2016-11-18T11:31:12.599Z,60
2016-11-18T11:32:11.983Z,65
2016-11-18T11:33:12.317Z,45
2016-11-18T11:34:12.029Z,40
2016-11-18T11:35:26.948Z,40
2016-11-18T11:36:12.736Z,40
2016-11-18T11:37:12.739Z,40
2016-11-18T11:38:12.441Z,45
2016-11-18T11:39:13.104Z,40
2016-11-18T11:40:12.496Z,35
2016-11-18T11:41:12.514Z,40
2016-11-18T11:42:12.539Z,45
2016-11-18T11:43:11.934Z,40
2016-11-18T11:44:12.586Z,35
2016-11-18T11:45:12.631Z,35
2016-11-18T11:46:12.953Z,45
2016-11-18T11:47:13.000Z,45
2016-11-18T11:48:12.696Z,45
2016-11-18T11:49:12.713Z,35
2016-11-18T11:50:12.739Z,30
2016-11-18T11:51:12.446Z,45
2016-11-18T11:52:12.789Z,40
2016-11-18T11:53:12.188Z,40
2016-11-18T11:54:12.520Z,45
2016-11-18T11:55:13.190Z,40
2016-11-18T11:56:12.604Z,45
2016-11-18T11:57:12.284Z,45
2016-11-18T11:58:12.937Z,40
2016-11-18T11:59:12.958Z,50
2016-11-18T12:00:12.680Z,40
2016-11-18T12:01:12.697Z,45
2016-11-18T12:02:13.032Z,45
2016-11-18T12:03:13.061Z,45
2016-11-18T12:04:13.123Z,40
2016-11-18T12:05:13.109Z,30
2016-11-18T12:06:13.134Z,30
2016-11-18T12:07:13.537Z,25
2016-11-18T12:08:13.189Z,40
2016-11-18T12:09:12.895Z,30
2016-11-18T12:10:12.600Z,25
2016-11-18T12:11:13.273Z,25
2016-11-18T12:12:12.966Z,30
2016-11-18T12:13:13.315Z,25
2016-11-18T12:14:13.335Z,25
2016-11-18T12:15:13.995Z,30
2016-11-18T12:16:13.700Z,30
2016-11-18T12:17:13.093Z,25
2016-11-18T12:18:13.754Z,25
2016-11-18T12:19:13.771Z,30
2016-11-18T12:20:12.878Z,25
2016-11-18T12:21:13.541Z,25
2016-11-18T12:22:13.784Z,25
2016-11-18T12:23:13.886Z,30
2016-11-18T12:24:13.589Z,30
2016-11-18T12:25:13.613Z,25
2016-11-18T12:26:13.317Z,25
2016-11-18T12:27:13.346Z,25
2016-11-18T12:28:13.684Z,30
2016-11-18T12:29:13.705Z,40
2016-11-18T12:30:13.738Z,25
2016-11-18T12:31:13.457Z,35
2016-11-18T12:32:14.097Z,25
2016-11-18T12:33:14.124Z,30
2016-11-18T12:34:13.515Z,30
2016-11-18T12:35:13.856Z,30
2016-11-18T12:36:14.196Z,35
2016-11-18T12:37:13.911Z,40
2016-11-18T12:38:13.937Z,35
2016-11-18T12:39:13.325Z,30
2016-11-18T12:40:13.982Z,25
2016-11-18T12:41:14.638Z,30
2016-11-18T12:42:14.034Z,35
2016-11-18T12:43:14.061Z,40
2016-11-18T12:44:14.395Z,25
2016-11-18T12:45:14.108Z,20
2016-11-18T12:46:14.132Z,20
2016-11-18T12:47:14.164Z,20
2016-11-18T12:48:13.870Z,25
2016-11-18T12:49:14.512Z,20
2016-11-18T12:50:13.615Z,20
2016-11-18T12:51:14.158Z,25
2016-11-18T12:52:13.965Z,20
2016-11-18T12:53:13.667Z,20
2016-11-18T12:54:14.672Z,20
2016-11-18T12:55:14.664Z,20
2016-11-18T12:56:14.104Z,20
2016-11-18T12:57:14.398Z,15
2016-11-18T12:58:13.830Z,20
2016-11-18T12:59:14.169Z,20
2016-11-18T13:00:14.176Z,25
2016-11-18T13:01:14.497Z,30
2016-11-18T13:02:14.523Z,30
2016-11-18T13:03:14.940Z,25
2016-11-18T13:04:14.570Z,25
2016-11-18T13:05:14.314Z,20
2016-11-18T13:06:14.309Z,20
2016-11-18T13:07:14.326Z,20
2016-11-18T13:08:14.992Z,20
2016-11-18T13:09:14.432Z,15
2016-11-18T13:10:14.134Z,15
2016-11-18T13:11:14.421Z,15
2016-11-18T13:12:14.149Z,15
2016-11-18T13:13:14.506Z,15
2016-11-18T13:14:15.137Z,20
2016-11-18T13:15:15.194Z,25
2016-11-18T13:16:14.570Z,20
2016-11-18T13:17:14.589Z,15
2016-11-18T13:18:14.942Z,15
2016-11-18T13:19:14.954Z,15
2016-11-18T13:20:14.335Z,15
2016-11-18T13:21:14.669Z,20
2016-11-18T13:22:14.734Z,20
2016-11-18T13:23:14.403Z,15
2016-11-18T13:24:15.378Z,15
2016-11-18T13:25:15.946Z,15
2016-11-18T13:26:15.100Z,15
2016-11-18T13:27:15.184Z,15
2016-11-18T13:28:15.470Z,15
2016-11-18T13:29:15.861Z,15
2016-11-18T13:30:15.837Z,15
2016-11-18T13:31:15.545Z,10
2016-11-18T13:32:14.941Z,10
2016-11-18T13:33:15.605Z,10
2016-11-18T13:34:15.303Z,10
2016-11-18T13:35:15.328Z,10
2016-11-18T13:36:15.347Z,10
2016-11-18T13:37:15.725Z,10
2016-11-18T13:38:16.026Z,10
2016-11-18T13:39:16.049Z,10
2016-11-18T13:40:14.813Z,10
2016-11-18T13:41:15.164Z,10
2016-11-18T13:42:15.489Z,10
2016-11-18T13:43:15.833Z,10
2016-11-18T13:44:15.221Z,10
2016-11-18T13:45:15.570Z,10
2016-11-18T13:46:16.225Z,10
2016-11-18T13:47:15.288Z,10
2016-11-18T13:48:14.999Z,5
2016-11-18T13:49:16.285Z,5
2016-11-18T13:50:15.392Z,5
2016-11-18T13:51:16.543Z,5
2016-11-18T13:52:15.409Z,5
2016-11-18T13:53:15.763Z,5
2016-11-18T13:54:15.141Z,5
2016-11-18T13:55:15.479Z,5
2016-11-18T13:56:15.521Z,5
2016-11-18T13:57:16.164Z,5
2016-11-18T13:58:15.885Z,5
2016-11-18T13:59:15.934Z,5
2016-11-18T14:00:15.917Z,5
2016-11-18T14:01:15.625Z,10
2016-11-18T14:02:15.643Z,5
2016-11-18T14:03:15.675Z,5
2016-11-18T14:04:16.005Z,5
2016-11-18T14:05:16.029Z,5
2016-11-18T14:06:16.059Z,5
2016-11-18T14:07:16.117Z,5
2016-11-18T14:08:15.788Z,5
2016-11-18T14:09:16.761Z,10
2016-11-18T14:10:16.159Z,10
2016-11-18T14:11:16.175Z,5
2016-11-18T14:12:15.565Z,5
2016-11-18T14:13:16.532Z,10
2016-11-18T14:14:16.566Z,5
2016-11-18T14:15:16.268Z,5
2016-11-18T14:16:16.299Z,5
2016-11-18T14:17:15.996Z,5
2016-11-18T14:18:15.710Z,5
2016-11-18T14:19:15.725Z,5
2016-11-18T14:20:16.386Z,5
2016-11-18T14:21:17.073Z,5
2016-11-18T14:22:16.112Z,5
2016-11-18T14:23:16.450Z,5
2016-11-18T14:24:16.472Z,5
2016-11-18T14:25:16.197Z,5
2016-11-18T14:26:16.527Z,5
2016-11-18T14:27:16.237Z,5
2016-11-18T14:28:16.561Z,0
2016-11-18T14:29:16.277Z,0
2016-11-18T14:30:16.622Z,0
2016-11-18T14:31:16.315Z,0
2016-11-18T14:32:16.345Z,0
2016-11-18T14:33:16.991Z,0
2016-11-18T14:34:16.387Z,0
2016-11-18T14:35:16.097Z,0
2016-11-18T14:36:16.771Z,0
2016-11-18T14:37:16.818Z,0